Tirana, Albania

01:26 AM CET on janar 21, 2017 (GMT +0100)
Rinas | | Change Station

Elev 295 ft 41.33 °N, 19.78 °E | Updated 6 minutes ago

Mist
mjegul
30 °F
Feels Like 30 °F
N
2
Era e paqendrueshme Era from e paqendrueshme

Sot
High -- | Low -- °F
--% Chance of Precip.
Yesterday
High -- | Low -- °F
Precip. -- ne
Presioni 30.39 ne
Visioni 1.9 milje
Clouds
Pika E Veses 27 °F
Lageshtira E ajrit 86%
Rainfall 0.00 ne
Snow Depth Not available.
7:01 AM 4:43 PM
Last Quarter, 40% visible
METAR LATI 210020Z VRB02KT 3000 BR NSC M01/M03 Q1029 NOSIG
Presioni 30.39 ne
Visioni 1.9 milje
Clouds
Pika E Veses 27 °F
Lageshtira E ajrit 86%
Rainfall 0.00 ne
Snow Depth Not available.
7:01 AM 4:43 PM
Last Quarter, 40% visible
METAR LATI 210020Z VRB02KT 3000 BR NSC M01/M03 Q1029 NOSIG

Get Your Daily Forecast Email!

Thanks for signing up!

Be on the lookout for a verification email in your inbox.

You'll start receiving the daily forecast at 8 AM.

×

10-Day Weather Forecast

×

Almanac

Astronomy

Jan. 21, 2017 Rise Set
Actual Time
Civil Twilight
Nautical Twilight
Astronomical Twilight
Moon
Length Of Visible Light
Length of Day
Tomorrow will be .
, % of the Moon is Illuminated

Today's Extremes

Country Highs Country Lows

Community

WunderPhotos

Upload Photos

1,962,540 photos uploaded!

WunderBlog® & News

Nearby

Air Quality

  Air Quality AQ Index Pollutant
Not available.

Snow Depth

Station Depth Elevation

Earthquake Activity

City Distance Mag. Time & Date
Minimum magnitude displayed is 2.5.

Coastal Water Temperatures

Vend Temperatura

Stations

Nearby Weather Stations

Station Location Temp Ftohtesia E erses Pika E Veses Lageshtira E ajrit Era Precip. Elev te freskuara(Te Dhenat) Type